sensor_id;sensor_type;location;lat;lon;timestamp;P1;durP1;ratioP1;P2;durP2;ratioP2
30553;SDS011;17335;50.720;7.452;2023-07-16T00:00:34;2.72;;;1.20;;
30553;SDS011;17335;50.720;7.452;2023-07-16T00:03:01;2.85;;;1.40;;
30553;SDS011;17335;50.720;7.452;2023-07-16T00:05:28;4.20;;;1.33;;
30553;SDS011;17335;50.720;7.452;2023-07-16T00:07:55;4.85;;;1.50;;
30553;SDS011;17335;50.720;7.452;2023-07-16T00:10:22;3.65;;;1.40;;
30553;SDS011;17335;50.720;7.452;2023-07-16T00:12:49;5.10;;;1.50;;
30553;SDS011;17335;50.720;7.452;2023-07-16T00:15:16;3.05;;;1.45;;
30553;SDS011;17335;50.720;7.452;2023-07-16T00:17:42;2.65;;;1.30;;
30553;SDS011;17335;50.720;7.452;2023-07-16T00:20:09;4.95;;;1.27;;
30553;SDS011;17335;50.720;7.452;2023-07-16T00:22:37;5.32;;;1.50;;
30553;SDS011;17335;50.720;7.452;2023-07-16T00:25:05;4.00;;;1.50;;
30553;SDS011;17335;50.720;7.452;2023-07-16T00:27:35;5.38;;;1.42;;
30553;SDS011;17335;50.720;7.452;2023-07-16T00:30:02;5.35;;;1.55;;
30553;SDS011;17335;50.720;7.452;2023-07-16T00:32:29;4.13;;;1.60;;
30553;SDS011;17335;50.720;7.452;2023-07-16T00:34:56;4.30;;;1.30;;
30553;SDS011;17335;50.720;7.452;2023-07-16T00:37:23;3.50;;;1.20;;
30553;SDS011;17335;50.720;7.452;2023-07-16T00:39:50;5.93;;;1.48;;
30553;SDS011;17335;50.720;7.452;2023-07-16T00:42:18;3.03;;;1.50;;
30553;SDS011;17335;50.720;7.452;2023-07-16T00:44:45;3.72;;;1.33;;
30553;SDS011;17335;50.720;7.452;2023-07-16T00:47:11;3.63;;;1.48;;
30553;SDS011;17335;50.720;7.452;2023-07-16T00:49:38;3.33;;;1.40;;
30553;SDS011;17335;50.720;7.452;2023-07-16T00:52:06;3.15;;;1.45;;
30553;SDS011;17335;50.720;7.452;2023-07-16T00:54:38;5.47;;;1.52;;
30553;SDS011;17335;50.720;7.452;2023-07-16T00:57:05;2.95;;;1.27;;
30553;SDS011;17335;50.720;7.452;2023-07-16T00:59:32;2.60;;;1.30;;
30553;SDS011;17335;50.720;7.452;2023-07-16T01:01:59;3.45;;;1.35;;
30553;SDS011;17335;50.720;7.452;2023-07-16T01:04:25;4.28;;;1.63;;
30553;SDS011;17335;50.720;7.452;2023-07-16T01:06:53;4.32;;;1.38;;
30553;SDS011;17335;50.720;7.452;2023-07-16T01:09:24;4.18;;;1.60;;
30553;SDS011;17335;50.720;7.452;2023-07-16T01:11:51;6.20;;;1.58;;
30553;SDS011;17335;50.720;7.452;2023-07-16T01:14:19;5.30;;;1.60;;
30553;SDS011;17335;50.720;7.452;2023-07-16T01:16:47;3.03;;;1.15;;
30553;SDS011;17335;50.720;7.452;2023-07-16T01:19:14;3.08;;;1.45;;
30553;SDS011;17335;50.720;7.452;2023-07-16T01:27:50;2.65;;;1.27;;
30553;SDS011;17335;50.720;7.452;2023-07-16T01:30:23;4.00;;;1.30;;
30553;SDS011;17335;50.720;7.452;2023-07-16T01:32:52;9.63;;;1.63;;
30553;SDS011;17335;50.720;7.452;2023-07-16T01:35:19;3.38;;;1.40;;
30553;SDS011;17335;50.720;7.452;2023-07-16T01:37:47;4.20;;;1.48;;
30553;SDS011;17335;50.720;7.452;2023-07-16T01:40:14;4.93;;;1.33;;
30553;SDS011;17335;50.720;7.452;2023-07-16T01:42:41;3.58;;;1.65;;
30553;SDS011;17335;50.720;7.452;2023-07-16T01:45:07;4.35;;;1.52;;
30553;SDS011;17335;50.720;7.452;2023-07-16T01:50:04;4.05;;;1.23;;
30553;SDS011;17335;50.720;7.452;2023-07-16T01:52:31;6.80;;;1.65;;
30553;SDS011;17335;50.720;7.452;2023-07-16T01:54:58;6.70;;;1.50;;
30553;SDS011;17335;50.720;7.452;2023-07-16T01:57:25;3.95;;;1.45;;
30553;SDS011;17335;50.720;7.452;2023-07-16T01:59:52;4.22;;;1.67;;
30553;SDS011;17335;50.720;7.452;2023-07-16T02:02:18;3.63;;;1.30;;
30553;SDS011;17335;50.720;7.452;2023-07-16T02:04:46;6.88;;;1.52;;
30553;SDS011;17335;50.720;7.452;2023-07-16T02:07:13;5.72;;;1.55;;
30553;SDS011;17335;50.720;7.452;2023-07-16T02:09:40;4.78;;;1.20;;
30553;SDS011;17335;50.720;7.452;2023-07-16T02:12:06;5.47;;;1.55;;
30553;SDS011;17335;50.720;7.452;2023-07-16T02:14:33;4.22;;;1.52;;
30553;SDS011;17335;50.720;7.452;2023-07-16T02:17:00;3.97;;;1.48;;
30553;SDS011;17335;50.720;7.452;2023-07-16T02:19:27;2.78;;;1.45;;
30553;SDS011;17335;50.720;7.452;2023-07-16T02:21:53;3.20;;;1.48;;
30553;SDS011;17335;50.720;7.452;2023-07-16T02:24:21;3.22;;;1.38;;
30553;SDS011;17335;50.720;7.452;2023-07-16T02:26:48;5.00;;;1.88;;
30553;SDS011;17335;50.720;7.452;2023-07-16T02:29:14;3.22;;;1.40;;
30553;SDS011;17335;50.720;7.452;2023-07-16T02:31:41;3.38;;;1.38;;
30553;SDS011;17335;50.720;7.452;2023-07-16T02:34:12;4.65;;;1.48;;
30553;SDS011;17335;50.720;7.452;2023-07-16T02:36:38;3.55;;;1.30;;
30553;SDS011;17335;50.720;7.452;2023-07-16T02:39:05;2.60;;;1.10;;
30553;SDS011;17335;50.720;7.452;2023-07-16T02:41:32;4.70;;;1.67;;
30553;SDS011;17335;50.720;7.452;2023-07-16T02:44:00;3.35;;;1.38;;
30553;SDS011;17335;50.720;7.452;2023-07-16T02:46:28;6.68;;;1.75;;
30553;SDS011;17335;50.720;7.452;2023-07-16T02:48:56;4.72;;;1.77;;
30553;SDS011;17335;50.720;7.452;2023-07-16T02:51:22;4.93;;;1.98;;
30553;SDS011;17335;50.720;7.452;2023-07-16T02:53:48;5.55;;;1.70;;
30553;SDS011;17335;50.720;7.452;2023-07-16T02:56:15;4.55;;;1.45;;
30553;SDS011;17335;50.720;7.452;2023-07-16T02:58:43;4.90;;;1.50;;
30553;SDS011;17335;50.720;7.452;2023-07-16T03:01:10;3.00;;;1.50;;
30553;SDS011;17335;50.720;7.452;2023-07-16T03:03:37;3.15;;;1.23;;
30553;SDS011;17335;50.720;7.452;2023-07-16T03:06:03;4.32;;;1.40;;
30553;SDS011;17335;50.720;7.452;2023-07-16T03:08:30;5.43;;;1.50;;
30553;SDS011;17335;50.720;7.452;2023-07-16T03:10:58;3.88;;;1.60;;
30553;SDS011;17335;50.720;7.452;2023-07-16T03:13:24;2.75;;;1.40;;
30553;SDS011;17335;50.720;7.452;2023-07-16T03:15:51;5.10;;;1.30;;
30553;SDS011;17335;50.720;7.452;2023-07-16T03:18:18;3.78;;;1.48;;
30553;SDS011;17335;50.720;7.452;2023-07-16T03:20:45;6.07;;;1.80;;
30553;SDS011;17335;50.720;7.452;2023-07-16T03:23:11;3.50;;;1.10;;
30553;SDS011;17335;50.720;7.452;2023-07-16T03:25:38;4.53;;;1.42;;
30553;SDS011;17335;50.720;7.452;2023-07-16T03:28:06;4.53;;;1.42;;
30553;SDS011;17335;50.720;7.452;2023-07-16T03:30:33;4.40;;;1.30;;
30553;SDS011;17335;50.720;7.452;2023-07-16T03:33:00;4.22;;;1.38;;
30553;SDS011;17335;50.720;7.452;2023-07-16T03:35:27;5.47;;;1.42;;
30553;SDS011;17335;50.720;7.452;2023-07-16T03:37:54;4.70;;;1.35;;
30553;SDS011;17335;50.720;7.452;2023-07-16T03:40:23;4.15;;;1.50;;
30553;SDS011;17335;50.720;7.452;2023-07-16T03:42:51;7.90;;;1.88;;
30553;SDS011;17335;50.720;7.452;2023-07-16T03:45:18;5.28;;;1.70;;
30553;SDS011;17335;50.720;7.452;2023-07-16T03:47:45;4.68;;;1.73;;
30553;SDS011;17335;50.720;7.452;2023-07-16T03:50:12;6.45;;;1.42;;
30553;SDS011;17335;50.720;7.452;2023-07-16T03:52:39;4.93;;;1.33;;
30553;SDS011;17335;50.720;7.452;2023-07-16T03:55:06;4.38;;;1.50;;
30553;SDS011;17335;50.720;7.452;2023-07-16T03:57:33;5.50;;;1.67;;
30553;SDS011;17335;50.720;7.452;2023-07-16T04:00:00;5.65;;;1.70;;
30553;SDS011;17335;50.720;7.452;2023-07-16T04:02:27;6.20;;;1.63;;
30553;SDS011;17335;50.720;7.452;2023-07-16T04:04:54;5.18;;;1.70;;
30553;SDS011;17335;50.720;7.452;2023-07-16T04:07:20;9.65;;;1.63;;
30553;SDS011;17335;50.720;7.452;2023-07-16T04:09:47;4.40;;;1.42;;
30553;SDS011;17335;50.720;7.452;2023-07-16T04:12:14;6.13;;;1.50;;
30553;SDS011;17335;50.720;7.452;2023-07-16T04:14:41;5.18;;;1.83;;
30553;SDS011;17335;50.720;7.452;2023-07-16T04:17:07;3.63;;;1.60;;
30553;SDS011;17335;50.720;7.452;2023-07-16T04:19:34;6.63;;;1.65;;
30553;SDS011;17335;50.720;7.452;2023-07-16T04:22:01;5.45;;;1.50;;
30553;SDS011;17335;50.720;7.452;2023-07-16T04:24:28;6.25;;;1.80;;
30553;SDS011;17335;50.720;7.452;2023-07-16T04:26:55;3.83;;;1.98;;
30553;SDS011;17335;50.720;7.452;2023-07-16T04:29:22;6.18;;;1.63;;
30553;SDS011;17335;50.720;7.452;2023-07-16T04:31:49;5.05;;;1.73;;
30553;SDS011;17335;50.720;7.452;2023-07-16T04:34:15;5.85;;;1.48;;
30553;SDS011;17335;50.720;7.452;2023-07-16T04:36:42;6.43;;;1.83;;
30553;SDS011;17335;50.720;7.452;2023-07-16T04:39:11;6.80;;;2.17;;
30553;SDS011;17335;50.720;7.452;2023-07-16T04:41:37;6.32;;;1.52;;
30553;SDS011;17335;50.720;7.452;2023-07-16T04:44:04;5.03;;;1.88;;
30553;SDS011;17335;50.720;7.452;2023-07-16T04:46:31;5.00;;;1.65;;
30553;SDS011;17335;50.720;7.452;2023-07-16T04:48:58;6.55;;;1.55;;
30553;SDS011;17335;50.720;7.452;2023-07-16T04:51:25;5.05;;;1.63;;
30553;SDS011;17335;50.720;7.452;2023-07-16T04:53:52;3.58;;;1.60;;
30553;SDS011;17335;50.720;7.452;2023-07-16T04:56:18;7.90;;;1.90;;
30553;SDS011;17335;50.720;7.452;2023-07-16T04:58:45;5.90;;;1.83;;
30553;SDS011;17335;50.720;7.452;2023-07-16T05:01:12;6.55;;;1.55;;
30553;SDS011;17335;50.720;7.452;2023-07-16T05:03:38;7.07;;;1.52;;
30553;SDS011;17335;50.720;7.452;2023-07-16T05:06:05;6.20;;;1.60;;
30553;SDS011;17335;50.720;7.452;2023-07-16T05:08:32;7.88;;;1.88;;
30553;SDS011;17335;50.720;7.452;2023-07-16T05:10:58;4.43;;;1.55;;
30553;SDS011;17335;50.720;7.452;2023-07-16T05:13:25;7.40;;;1.83;;
30553;SDS011;17335;50.720;7.452;2023-07-16T05:15:52;6.47;;;1.75;;
30553;SDS011;17335;50.720;7.452;2023-07-16T05:18:19;4.97;;;1.30;;
30553;SDS011;17335;50.720;7.452;2023-07-16T05:20:48;7.07;;;2.05;;
30553;SDS011;17335;50.720;7.452;2023-07-16T05:23:15;5.70;;;1.80;;
30553;SDS011;17335;50.720;7.452;2023-07-16T05:25:45;3.83;;;1.95;;
30553;SDS011;17335;50.720;7.452;2023-07-16T05:28:14;4.35;;;1.60;;
30553;SDS011;17335;50.720;7.452;2023-07-16T05:30:45;7.43;;;1.80;;
30553;SDS011;17335;50.720;7.452;2023-07-16T05:33:12;6.43;;;1.90;;
30553;SDS011;17335;50.720;7.452;2023-07-16T05:35:39;5.43;;;2.10;;
30553;SDS011;17335;50.720;7.452;2023-07-16T05:38:06;5.13;;;2.00;;
30553;SDS011;17335;50.720;7.452;2023-07-16T05:40:33;4.60;;;1.75;;
30553;SDS011;17335;50.720;7.452;2023-07-16T05:43:00;9.88;;;2.45;;
30553;SDS011;17335;50.720;7.452;2023-07-16T05:45:27;4.45;;;1.80;;
30553;SDS011;17335;50.720;7.452;2023-07-16T05:47:57;6.63;;;1.90;;
30553;SDS011;17335;50.720;7.452;2023-07-16T05:50:27;5.50;;;1.80;;
30553;SDS011;17335;50.720;7.452;2023-07-16T05:52:58;4.90;;;1.95;;
30553;SDS011;17335;50.720;7.452;2023-07-16T05:55:26;5.88;;;1.95;;
30553;SDS011;17335;50.720;7.452;2023-07-16T05:57:53;5.35;;;2.30;;
30553;SDS011;17335;50.720;7.452;2023-07-16T06:00:21;5.63;;;2.15;;
30553;SDS011;17335;50.720;7.452;2023-07-16T06:02:49;4.57;;;2.08;;
30553;SDS011;17335;50.720;7.452;2023-07-16T06:05:17;5.88;;;2.60;;
30553;SDS011;17335;50.720;7.452;2023-07-16T06:07:51;4.65;;;1.95;;
30553;SDS011;17335;50.720;7.452;2023-07-16T06:10:21;7.15;;;2.30;;
30553;SDS011;17335;50.720;7.452;2023-07-16T06:12:48;5.55;;;2.35;;
30553;SDS011;17335;50.720;7.452;2023-07-16T06:15:15;8.40;;;2.55;;
30553;SDS011;17335;50.720;7.452;2023-07-16T06:17:42;5.85;;;2.10;;
30553;SDS011;17335;50.720;7.452;2023-07-16T06:20:10;6.78;;;2.50;;
30553;SDS011;17335;50.720;7.452;2023-07-16T06:22:37;5.45;;;2.40;;
30553;SDS011;17335;50.720;7.452;2023-07-16T06:25:04;7.63;;;2.65;;
30553;SDS011;17335;50.720;7.452;2023-07-16T06:27:31;6.10;;;2.33;;
30553;SDS011;17335;50.720;7.452;2023-07-16T06:29:57;4.35;;;2.10;;
30553;SDS011;17335;50.720;7.452;2023-07-16T06:32:24;7.20;;;2.63;;
30553;SDS011;17335;50.720;7.452;2023-07-16T06:34:50;6.22;;;2.40;;
30553;SDS011;17335;50.720;7.452;2023-07-16T06:37:17;7.55;;;2.25;;
30553;SDS011;17335;50.720;7.452;2023-07-16T06:39:43;10.60;;;2.72;;
30553;SDS011;17335;50.720;7.452;2023-07-16T06:42:10;5.90;;;2.60;;
30553;SDS011;17335;50.720;7.452;2023-07-16T06:44:37;7.43;;;2.75;;
30553;SDS011;17335;50.720;7.452;2023-07-16T06:47:03;6.07;;;2.72;;
30553;SDS011;17335;50.720;7.452;2023-07-16T06:49:31;8.07;;;3.13;;
30553;SDS011;17335;50.720;7.452;2023-07-16T06:52:00;7.53;;;3.33;;
30553;SDS011;17335;50.720;7.452;2023-07-16T06:54:27;7.07;;;2.85;;
30553;SDS011;17335;50.720;7.452;2023-07-16T06:56:54;6.97;;;2.60;;
30553;SDS011;17335;50.720;7.452;2023-07-16T06:59:20;8.75;;;2.83;;
30553;SDS011;17335;50.720;7.452;2023-07-16T07:01:47;6.13;;;2.80;;
30553;SDS011;17335;50.720;7.452;2023-07-16T07:04:14;6.03;;;2.38;;
30553;SDS011;17335;50.720;7.452;2023-07-16T07:06:41;5.40;;;2.63;;
30553;SDS011;17335;50.720;7.452;2023-07-16T07:09:07;6.80;;;2.80;;
30553;SDS011;17335;50.720;7.452;2023-07-16T07:11:34;7.35;;;3.15;;
30553;SDS011;17335;50.720;7.452;2023-07-16T07:14:00;7.63;;;3.17;;
30553;SDS011;17335;50.720;7.452;2023-07-16T07:16:27;7.63;;;3.67;;
30553;SDS011;17335;50.720;7.452;2023-07-16T07:18:54;8.13;;;3.45;;
30553;SDS011;17335;50.720;7.452;2023-07-16T07:21:20;7.68;;;3.20;;
30553;SDS011;17335;50.720;7.452;2023-07-16T07:23:47;6.32;;;3.17;;
30553;SDS011;17335;50.720;7.452;2023-07-16T07:26:13;8.25;;;3.20;;
30553;SDS011;17335;50.720;7.452;2023-07-16T07:28:40;7.43;;;3.17;;
30553;SDS011;17335;50.720;7.452;2023-07-16T07:31:07;7.70;;;3.00;;
30553;SDS011;17335;50.720;7.452;2023-07-16T07:33:34;7.93;;;3.20;;
30553;SDS011;17335;50.720;7.452;2023-07-16T07:36:00;8.45;;;3.42;;
30553;SDS011;17335;50.720;7.452;2023-07-16T07:38:28;7.18;;;2.95;;
30553;SDS011;17335;50.720;7.452;2023-07-16T07:40:55;6.70;;;3.40;;
30553;SDS011;17335;50.720;7.452;2023-07-16T07:43:21;7.03;;;3.00;;
30553;SDS011;17335;50.720;7.452;2023-07-16T07:45:48;8.02;;;3.10;;
30553;SDS011;17335;50.720;7.452;2023-07-16T07:48:14;7.78;;;3.25;;
30553;SDS011;17335;50.720;7.452;2023-07-16T07:50:41;10.23;;;3.55;;
30553;SDS011;17335;50.720;7.452;2023-07-16T07:53:08;7.70;;;3.58;;
30553;SDS011;17335;50.720;7.452;2023-07-16T07:55:34;8.60;;;3.28;;
30553;SDS011;17335;50.720;7.452;2023-07-16T07:58:03;9.02;;;3.50;;
30553;SDS011;17335;50.720;7.452;2023-07-16T08:00:30;7.95;;;3.72;;
30553;SDS011;17335;50.720;7.452;2023-07-16T08:02:56;11.23;;;3.58;;
30553;SDS011;17335;50.720;7.452;2023-07-16T08:05:23;6.43;;;3.55;;
30553;SDS011;17335;50.720;7.452;2023-07-16T08:07:50;12.55;;;4.00;;
30553;SDS011;17335;50.720;7.452;2023-07-16T08:10:17;8.45;;;3.92;;
30553;SDS011;17335;50.720;7.452;2023-07-16T08:12:44;9.13;;;3.65;;
30553;SDS011;17335;50.720;7.452;2023-07-16T08:15:11;7.43;;;3.63;;
30553;SDS011;17335;50.720;7.452;2023-07-16T08:17:42;8.25;;;3.83;;
30553;SDS011;17335;50.720;7.452;2023-07-16T08:20:10;7.50;;;3.80;;
30553;SDS011;17335;50.720;7.452;2023-07-16T08:22:38;10.93;;;3.83;;
30553;SDS011;17335;50.720;7.452;2023-07-16T08:25:06;7.32;;;3.22;;
30553;SDS011;17335;50.720;7.452;2023-07-16T08:27:33;6.97;;;3.40;;
30553;SDS011;17335;50.720;7.452;2023-07-16T08:30:00;8.38;;;3.38;;
30553;SDS011;17335;50.720;7.452;2023-07-16T08:32:27;6.60;;;3.50;;
30553;SDS011;17335;50.720;7.452;2023-07-16T08:34:54;7.60;;;3.20;;
30553;SDS011;17335;50.720;7.452;2023-07-16T08:37:21;9.20;;;3.65;;
30553;SDS011;17335;50.720;7.452;2023-07-16T08:39:50;8.07;;;3.55;;
30553;SDS011;17335;50.720;7.452;2023-07-16T08:42:19;9.35;;;3.38;;
30553;SDS011;17335;50.720;7.452;2023-07-16T08:44:47;8.45;;;3.50;;
30553;SDS011;17335;50.720;7.452;2023-07-16T08:47:15;6.75;;;3.97;;
30553;SDS011;17335;50.720;7.452;2023-07-16T08:49:44;7.63;;;3.58;;
30553;SDS011;17335;50.720;7.452;2023-07-16T08:52:20;7.70;;;3.83;;
30553;SDS011;17335;50.720;7.452;2023-07-16T08:54:47;6.40;;;3.00;;
30553;SDS011;17335;50.720;7.452;2023-07-16T08:57:14;14.70;;;3.17;;
30553;SDS011;17335;50.720;7.452;2023-07-16T08:59:41;8.05;;;4.25;;
30553;SDS011;17335;50.720;7.452;2023-07-16T09:02:09;10.27;;;4.30;;
30553;SDS011;17335;50.720;7.452;2023-07-16T09:04:36;7.75;;;3.90;;
30553;SDS011;17335;50.720;7.452;2023-07-16T09:07:02;8.25;;;3.63;;
30553;SDS011;17335;50.720;7.452;2023-07-16T09:09:29;7.18;;;3.55;;
30553;SDS011;17335;50.720;7.452;2023-07-16T09:11:56;6.95;;;3.42;;
30553;SDS011;17335;50.720;7.452;2023-07-16T09:14:23;8.82;;;3.80;;
30553;SDS011;17335;50.720;7.452;2023-07-16T09:16:50;7.30;;;3.55;;
30553;SDS011;17335;50.720;7.452;2023-07-16T09:19:18;14.38;;;3.85;;
30553;SDS011;17335;50.720;7.452;2023-07-16T09:21:46;9.88;;;3.50;;
30553;SDS011;17335;50.720;7.452;2023-07-16T09:24:17;7.88;;;3.67;;
30553;SDS011;17335;50.720;7.452;2023-07-16T09:26:47;7.22;;;3.28;;
30553;SDS011;17335;50.720;7.452;2023-07-16T09:29:21;5.85;;;3.40;;
30553;SDS011;17335;50.720;7.452;2023-07-16T09:31:58;5.70;;;3.47;;
30553;SDS011;17335;50.720;7.452;2023-07-16T09:34:29;9.50;;;3.05;;
30553;SDS011;17335;50.720;7.452;2023-07-16T09:36:59;7.65;;;3.17;;
30553;SDS011;17335;50.720;7.452;2023-07-16T09:39:27;7.72;;;3.28;;
30553;SDS011;17335;50.720;7.452;2023-07-16T09:41:54;5.82;;;3.22;;
30553;SDS011;17335;50.720;7.452;2023-07-16T09:44:23;7.50;;;3.30;;
30553;SDS011;17335;50.720;7.452;2023-07-16T09:46:50;8.60;;;3.15;;
30553;SDS011;17335;50.720;7.452;2023-07-16T09:49:17;5.30;;;2.95;;
30553;SDS011;17335;50.720;7.452;2023-07-16T09:51:44;15.32;;;3.63;;
30553;SDS011;17335;50.720;7.452;2023-07-16T09:54:12;5.65;;;2.72;;
30553;SDS011;17335;50.720;7.452;2023-07-16T09:56:51;6.40;;;3.03;;
30553;SDS011;17335;50.720;7.452;2023-07-16T09:59:26;6.40;;;2.38;;
30553;SDS011;17335;50.720;7.452;2023-07-16T10:01:55;6.15;;;3.40;;
30553;SDS011;17335;50.720;7.452;2023-07-16T10:04:23;8.15;;;3.38;;
30553;SDS011;17335;50.720;7.452;2023-07-16T10:07:00;13.15;;;3.50;;
30553;SDS011;17335;50.720;7.452;2023-07-16T10:09:41;7.43;;;3.60;;
30553;SDS011;17335;50.720;7.452;2023-07-16T10:12:17;6.45;;;2.92;;
30553;SDS011;17335;50.720;7.452;2023-07-16T10:14:48;7.10;;;2.90;;
30553;SDS011;17335;50.720;7.452;2023-07-16T10:17:17;6.78;;;3.15;;
30553;SDS011;17335;50.720;7.452;2023-07-16T10:19:58;4.82;;;2.70;;
30553;SDS011;17335;50.720;7.452;2023-07-16T10:22:38;7.25;;;2.75;;
30553;SDS011;17335;50.720;7.452;2023-07-16T10:27:35;9.45;;;3.33;;
30553;SDS011;17335;50.720;7.452;2023-07-16T10:30:03;7.30;;;3.45;;
30553;SDS011;17335;50.720;7.452;2023-07-16T10:32:31;6.22;;;3.45;;
30553;SDS011;17335;50.720;7.452;2023-07-16T10:34:59;8.05;;;3.30;;
30553;SDS011;17335;50.720;7.452;2023-07-16T10:37:26;6.97;;;3.10;;
30553;SDS011;17335;50.720;7.452;2023-07-16T10:39:54;7.57;;;3.53;;
30553;SDS011;17335;50.720;7.452;2023-07-16T10:42:24;8.68;;;3.30;;
30553;SDS011;17335;50.720;7.452;2023-07-16T10:44:52;11.25;;;3.67;;
30553;SDS011;17335;50.720;7.452;2023-07-16T10:47:22;6.95;;;3.60;;
30553;SDS011;17335;50.720;7.452;2023-07-16T10:49:50;6.47;;;3.40;;
30553;SDS011;17335;50.720;7.452;2023-07-16T10:52:21;7.70;;;3.83;;
30553;SDS011;17335;50.720;7.452;2023-07-16T10:54:52;6.55;;;3.50;;
30553;SDS011;17335;50.720;7.452;2023-07-16T10:57:24;7.28;;;3.47;;
30553;SDS011;17335;50.720;7.452;2023-07-16T10:59:52;7.57;;;3.80;;
30553;SDS011;17335;50.720;7.452;2023-07-16T11:02:23;7.65;;;3.90;;
30553;SDS011;17335;50.720;7.452;2023-07-16T11:04:51;10.38;;;3.67;;
30553;SDS011;17335;50.720;7.452;2023-07-16T11:07:21;7.65;;;3.10;;
30553;SDS011;17335;50.720;7.452;2023-07-16T11:09:51;9.80;;;3.75;;
30553;SDS011;17335;50.720;7.452;2023-07-16T11:12:23;7.15;;;3.67;;
30553;SDS011;17335;50.720;7.452;2023-07-16T11:14:51;6.05;;;3.40;;
30553;SDS011;17335;50.720;7.452;2023-07-16T11:17:19;6.53;;;3.10;;
30553;SDS011;17335;50.720;7.452;2023-07-16T11:19:49;8.68;;;3.40;;
30553;SDS011;17335;50.720;7.452;2023-07-16T11:22:17;7.05;;;3.30;;
30553;SDS011;17335;50.720;7.452;2023-07-16T11:24:46;6.97;;;2.70;;
30553;SDS011;17335;50.720;7.452;2023-07-16T11:27:18;5.55;;;3.17;;
30553;SDS011;17335;50.720;7.452;2023-07-16T11:29:47;6.78;;;3.60;;
30553;SDS011;17335;50.720;7.452;2023-07-16T11:35:08;6.35;;;2.95;;
30553;SDS011;17335;50.720;7.452;2023-07-16T11:37:41;8.75;;;3.85;;
30553;SDS011;17335;50.720;7.452;2023-07-16T11:40:09;5.43;;;2.75;;
30553;SDS011;17335;50.720;7.452;2023-07-16T11:42:37;5.93;;;3.10;;
30553;SDS011;17335;50.720;7.452;2023-07-16T11:45:05;5.53;;;3.17;;
30553;SDS011;17335;50.720;7.452;2023-07-16T11:47:54;7.20;;;3.03;;
30553;SDS011;17335;50.720;7.452;2023-07-16T11:50:21;6.05;;;2.85;;
30553;SDS011;17335;50.720;7.452;2023-07-16T11:52:59;7.22;;;2.90;;
30553;SDS011;17335;50.720;7.452;2023-07-16T11:55:28;6.00;;;2.50;;
30553;SDS011;17335;50.720;7.452;2023-07-16T11:57:55;5.30;;;2.60;;
30553;SDS011;17335;50.720;7.452;2023-07-16T12:00:23;7.18;;;2.70;;
30553;SDS011;17335;50.720;7.452;2023-07-16T12:02:50;6.60;;;2.53;;
30553;SDS011;17335;50.720;7.452;2023-07-16T12:05:22;8.13;;;2.85;;
30553;SDS011;17335;50.720;7.452;2023-07-16T12:08:14;6.50;;;3.05;;
30553;SDS011;17335;50.720;7.452;2023-07-16T12:10:41;6.15;;;2.90;;
30553;SDS011;17335;50.720;7.452;2023-07-16T12:13:08;7.13;;;2.95;;
30553;SDS011;17335;50.720;7.452;2023-07-16T12:15:34;8.02;;;3.63;;
30553;SDS011;17335;50.720;7.452;2023-07-16T12:18:01;5.70;;;2.42;;
30553;SDS011;17335;50.720;7.452;2023-07-16T12:20:29;6.50;;;2.75;;
30553;SDS011;17335;50.720;7.452;2023-07-16T12:22:56;9.60;;;2.85;;
30553;SDS011;17335;50.720;7.452;2023-07-16T12:25:23;6.30;;;2.95;;
30553;SDS011;17335;50.720;7.452;2023-07-16T12:27:49;4.93;;;2.58;;
30553;SDS011;17335;50.720;7.452;2023-07-16T12:30:19;8.77;;;2.83;;
30553;SDS011;17335;50.720;7.452;2023-07-16T12:32:46;6.07;;;2.85;;
30553;SDS011;17335;50.720;7.452;2023-07-16T12:35:13;8.48;;;3.17;;
30553;SDS011;17335;50.720;7.452;2023-07-16T12:37:40;7.47;;;3.42;;
30553;SDS011;17335;50.720;7.452;2023-07-16T12:40:07;4.88;;;2.47;;
30553;SDS011;17335;50.720;7.452;2023-07-16T12:42:34;5.20;;;2.92;;
30553;SDS011;17335;50.720;7.452;2023-07-16T12:45:01;5.13;;;2.75;;
30553;SDS011;17335;50.720;7.452;2023-07-16T12:47:28;7.68;;;3.17;;
30553;SDS011;17335;50.720;7.452;2023-07-16T12:49:55;7.80;;;2.80;;
30553;SDS011;17335;50.720;7.452;2023-07-16T12:52:21;8.25;;;3.20;;
30553;SDS011;17335;50.720;7.452;2023-07-16T12:54:48;7.30;;;3.05;;
30553;SDS011;17335;50.720;7.452;2023-07-16T12:57:16;9.15;;;3.33;;
30553;SDS011;17335;50.720;7.452;2023-07-16T12:59:44;6.18;;;3.22;;
30553;SDS011;17335;50.720;7.452;2023-07-16T13:02:10;9.32;;;3.33;;
30553;SDS011;17335;50.720;7.452;2023-07-16T13:04:37;9.65;;;3.55;;
30553;SDS011;17335;50.720;7.452;2023-07-16T13:07:03;8.88;;;3.17;;
30553;SDS011;17335;50.720;7.452;2023-07-16T13:09:30;6.85;;;3.30;;
30553;SDS011;17335;50.720;7.452;2023-07-16T13:11:56;6.65;;;3.00;;
30553;SDS011;17335;50.720;7.452;2023-07-16T13:14:23;7.00;;;2.85;;
30553;SDS011;17335;50.720;7.452;2023-07-16T13:16:50;5.75;;;2.78;;
30553;SDS011;17335;50.720;7.452;2023-07-16T13:19:17;6.35;;;2.88;;
30553;SDS011;17335;50.720;7.452;2023-07-16T13:21:44;6.45;;;2.95;;
30553;SDS011;17335;50.720;7.452;2023-07-16T13:24:11;7.40;;;3.17;;
30553;SDS011;17335;50.720;7.452;2023-07-16T13:26:37;7.78;;;3.22;;
30553;SDS011;17335;50.720;7.452;2023-07-16T13:29:04;8.93;;;3.30;;
30553;SDS011;17335;50.720;7.452;2023-07-16T13:31:31;5.78;;;2.85;;
30553;SDS011;17335;50.720;7.452;2023-07-16T13:33:58;8.70;;;3.13;;
30553;SDS011;17335;50.720;7.452;2023-07-16T13:36:24;6.78;;;2.78;;
30553;SDS011;17335;50.720;7.452;2023-07-16T13:38:51;7.38;;;3.00;;
30553;SDS011;17335;50.720;7.452;2023-07-16T13:41:17;7.05;;;2.65;;
30553;SDS011;17335;50.720;7.452;2023-07-16T13:43:44;6.10;;;3.30;;
30553;SDS011;17335;50.720;7.452;2023-07-16T13:46:10;5.85;;;2.40;;
30553;SDS011;17335;50.720;7.452;2023-07-16T13:48:41;5.70;;;3.33;;
30553;SDS011;17335;50.720;7.452;2023-07-16T13:51:23;10.15;;;3.22;;
30553;SDS011;17335;50.720;7.452;2023-07-16T13:53:49;6.15;;;3.00;;
30553;SDS011;17335;50.720;7.452;2023-07-16T13:56:16;6.40;;;3.50;;
30553;SDS011;17335;50.720;7.452;2023-07-16T13:58:43;6.05;;;2.95;;
30553;SDS011;17335;50.720;7.452;2023-07-16T14:01:09;8.70;;;3.22;;
30553;SDS011;17335;50.720;7.452;2023-07-16T14:03:36;7.03;;;3.15;;
30553;SDS011;17335;50.720;7.452;2023-07-16T14:06:03;8.48;;;3.20;;
30553;SDS011;17335;50.720;7.452;2023-07-16T14:08:30;6.90;;;2.65;;
30553;SDS011;17335;50.720;7.452;2023-07-16T14:11:00;5.57;;;2.63;;
30553;SDS011;17335;50.720;7.452;2023-07-16T14:13:26;6.55;;;2.85;;
30553;SDS011;17335;50.720;7.452;2023-07-16T14:15:53;4.22;;;2.53;;
30553;SDS011;17335;50.720;7.452;2023-07-16T14:18:19;5.85;;;3.10;;
30553;SDS011;17335;50.720;7.452;2023-07-16T14:20:46;5.38;;;2.90;;
30553;SDS011;17335;50.720;7.452;2023-07-16T14:23:13;7.68;;;2.67;;
30553;SDS011;17335;50.720;7.452;2023-07-16T14:25:39;5.40;;;2.75;;
30553;SDS011;17335;50.720;7.452;2023-07-16T14:28:07;10.68;;;3.15;;
30553;SDS011;17335;50.720;7.452;2023-07-16T14:30:34;6.60;;;2.83;;
30553;SDS011;17335;50.720;7.452;2023-07-16T14:33:01;6.78;;;2.90;;
30553;SDS011;17335;50.720;7.452;2023-07-16T14:35:30;5.88;;;2.95;;
30553;SDS011;17335;50.720;7.452;2023-07-16T14:38:03;6.65;;;3.33;;
30553;SDS011;17335;50.720;7.452;2023-07-16T14:40:30;8.05;;;2.85;;
30553;SDS011;17335;50.720;7.452;2023-07-16T14:42:57;5.43;;;2.78;;
30553;SDS011;17335;50.720;7.452;2023-07-16T14:45:24;5.53;;;2.70;;
30553;SDS011;17335;50.720;7.452;2023-07-16T14:47:51;5.22;;;2.85;;
30553;SDS011;17335;50.720;7.452;2023-07-16T14:50:18;6.68;;;2.97;;
30553;SDS011;17335;50.720;7.452;2023-07-16T14:52:46;5.43;;;2.40;;
30553;SDS011;17335;50.720;7.452;2023-07-16T14:55:13;9.48;;;3.00;;
30553;SDS011;17335;50.720;7.452;2023-07-16T14:57:41;6.95;;;2.60;;
30553;SDS011;17335;50.720;7.452;2023-07-16T15:00:08;10.02;;;2.95;;
30553;SDS011;17335;50.720;7.452;2023-07-16T15:02:39;5.68;;;2.47;;
30553;SDS011;17335;50.720;7.452;2023-07-16T15:05:05;6.13;;;2.70;;